Sunday, May 24, 2015, 5:01 AM EDT

KOFP, Hanover County Municipal

Location: Ashland, VA, United States Lat: 37.7
Local Time: 5:01 AM EDT ( 9:01 GMT) Lon: -77.433
Time Zone: US/Eastern Elev: 203 ft

Show me the last for .
Show Decoded

2015-05-24 03:54 METAR KOFP 240754Z AUTO VRB03KT 10SM CLR 13/09 A3040 RMK AO2 SLP291 T01330089 =
2015-05-24 02:54 METAR KOFP 240654Z AUTO VRB05KT 10SM CLR 14/09 A3040 RMK AO2 SLP292 T01390089 =
2015-05-24 01:54 METAR KOFP 240554Z AUTO VRB03KT 10SM FEW085 14/10 A3040 RMK AO2 SLP294 T01440100
                 10183 20128 58003 =
2015-05-24 00:54 METAR KOFP 240454Z AUTO 00000KT 10SM OVC085 14/10 A3041 RMK AO2 SLP296 T01440100
                 402390089 =
2015-05-23 23:54 METAR KOFP 240354Z AUTO VRB03KT 10SM CLR 14/09 A3041 RMK AO2 SLP297 T01390094 =
2015-05-23 22:54 METAR KOFP 240254Z AUTO 00000KT 10SM BKN080 15/09 A3041 RMK AO2 SLP297 T01500094
                 53009 =
2015-05-23 21:54 METAR KOFP 240154Z AUTO 08003KT 10SM BKN080 14/11 A3040 RMK AO2 SLP292 T01390106
                 =
2015-05-23 20:54 METAR KOFP 240054Z AUTO 00000KT 10SM CLR 16/11 A3039 RMK AO2 SLP289 T01560106 =
2015-05-23 19:54 METAR KOFP 232354Z AUTO 00000KT 10SM CLR 18/11 A3038 RMK AO2 SLP288 T01830106
                 10239 20183 55007 =
2015-05-23 18:54 METAR KOFP 232254Z AUTO 00000KT 10SM CLR 23/10 A3038 RMK AO2 SLP287 T02280100 =
2015-05-23 17:54 METAR KOFP 232154Z AUTO VRB03KT 10SM CLR 23/06 A3039 RMK AO2 SLP289 T02280056 =
2015-05-23 16:54 METAR KOFP 232054Z AUTO 00000KT 10SM CLR 23/05 A3040 RMK AO2 SLP295 T02330050
                 56018 =
2015-05-23 15:54 METAR KOFP 231954Z AUTO VRB03KT 10SM CLR 23/06 A3041 RMK AO2 SLP298 T02330056 =
2015-05-23 14:54 METAR KOFP 231854Z AUTO VRB03KT 10SM CLR 22/04 A3044 RMK AO2 SLP306 T02220044 =
2015-05-23 13:54 METAR KOFP 231754Z AUTO 00000KT 10SM CLR 21/02 A3046 RMK AO2 SLP313 T02110022
                 10217 20133 58010 =
2015-05-23 12:54 METAR KOFP 231654Z AUTO 00000KT 10SM CLR 21/02 A3047 RMK AO2 SLP318 T02060022 =
2015-05-23 11:54 METAR KOFP 231554Z AUTO VRB06KT 10SM CLR 20/02 A3048 RMK AO2 SLP321 T02000022 =
2015-05-23 10:54 METAR KOFP 231454Z AUTO 05007KT 350V080 10SM CLR 18/01 A3049 RMK AO2 SLP322
                 T01830011 50013 =
2015-05-23 09:54 METAR KOFP 231354Z AUTO VRB05KT 10SM CLR 17/01 A3049 RMK AO2 SLP324 T01720006 =
2015-05-23 08:54 METAR KOFP 231254Z AUTO VRB05KT 10SM CLR 16/02 A3048 RMK AO2 SLP320 T01560017 =
2015-05-23 06:54 METAR KOFP 231054Z AUTO VRB03KT 10SM CLR 11/05 A3042 RMK AO2 SLP300 T01110050 =
2015-05-23 05:54 METAR KOFP 230954Z AUTO 00000KT 10SM CLR 11/06 A3038 RMK AO2 SLP287 T01060061 =

Support USWX by starting your Amazon purchase here.